Terminal Aerodrome Forecast
Issued by NWS

Home | Current Version | Previous Version | Text Only | Print | Product List | Glossary Off
Versions: 1 2 3 4 5 6 7 8 9 10 11 12 13 14 15 16 17 18 19

000
FTUS43 KGRB 221131
TAFRHI
TAF
KRHI 221131Z 2212/2312 16003KT P6SM FEW250
     FM230500 16006KT P6SM BKN100
     FM231100 17006KT P6SM OVC070=

USA.gov is the U.S. government's official web portal to all federal, state and local government web resources and services.